createdAt,value
2018-06-28T00:01:08.260Z,23.30
2018-06-28T00:03:36.249Z,23.30
2018-06-28T00:06:03.865Z,23.27
2018-06-28T00:08:32.181Z,23.25
2018-06-28T00:10:59.781Z,23.23
2018-06-28T00:13:27.341Z,23.23
2018-06-28T00:15:55.263Z,23.21
2018-06-28T00:18:23.166Z,23.19
2018-06-28T00:20:51.074Z,23.17
2018-06-28T00:23:18.639Z,23.15
2018-06-28T00:25:46.566Z,23.14
2018-06-28T00:28:14.795Z,23.12
2018-06-28T00:30:42.397Z,23.10
2018-06-28T00:33:10.489Z,23.09
2018-06-28T00:35:38.444Z,23.06
2018-06-28T00:38:06.141Z,23.05
2018-06-28T00:40:34.007Z,23.04
2018-06-28T00:43:01.620Z,23.04
2018-06-28T00:45:29.215Z,23.03
2018-06-28T00:47:57.141Z,23.00
2018-06-28T00:50:24.754Z,23.02
2018-06-28T00:52:52.980Z,22.99
2018-06-28T00:55:20.603Z,22.97
2018-06-28T00:57:48.459Z,22.97
2018-06-28T01:00:16.431Z,22.96
2018-06-28T01:02:44.059Z,22.95
2018-06-28T01:05:12.823Z,22.93
2018-06-28T01:07:40.698Z,22.92
2018-06-28T01:10:08.286Z,22.91
2018-06-28T01:12:35.987Z,22.90
2018-06-28T01:15:03.919Z,22.89
2018-06-28T01:17:31.890Z,22.87
2018-06-28T01:19:59.505Z,22.85
2018-06-28T01:22:27.439Z,22.85
2018-06-28T01:24:55.173Z,22.83
2018-06-28T01:27:22.766Z,22.81
2018-06-28T01:29:50.586Z,22.81
2018-06-28T01:32:18.437Z,22.79
2018-06-28T01:34:46.044Z,22.80
2018-06-28T01:37:14.016Z,22.77
2018-06-28T01:39:41.602Z,22.76
2018-06-28T01:43:19.231Z,22.77
2018-06-28T01:45:46.857Z,22.76
2018-06-28T01:48:14.497Z,22.75
2018-06-28T01:50:42.366Z,22.74
2018-06-28T01:53:10.019Z,22.73
2018-06-28T01:55:37.641Z,22.73
2018-06-28T01:58:05.254Z,22.72
2018-06-28T02:00:33.421Z,22.71
2018-06-28T02:03:01.337Z,22.72
2018-06-28T02:05:28.949Z,22.70
2018-06-28T02:07:56.956Z,22.68
2018-06-28T02:10:24.889Z,22.66
2018-06-28T02:12:52.515Z,22.66
2018-06-28T02:15:20.483Z,22.66
2018-06-28T02:17:48.223Z,22.64
2018-06-28T02:20:16.154Z,22.63
2018-06-28T02:22:43.732Z,22.61
2018-06-28T02:25:11.395Z,22.59
2018-06-28T02:27:39.046Z,22.60
2018-06-28T02:30:06.657Z,22.57
2018-06-28T02:32:34.609Z,22.57
2018-06-28T02:35:02.610Z,22.58
2018-06-28T02:37:32.038Z,22.57
2018-06-28T02:40:00.486Z,22.56
2018-06-28T02:42:28.715Z,22.56
2018-06-28T02:44:56.341Z,22.58
2018-06-28T02:47:24.278Z,22.56
2018-06-28T02:49:52.031Z,22.55
2018-06-28T02:52:19.950Z,22.54
2018-06-28T02:54:47.553Z,22.53
2018-06-28T02:57:15.237Z,22.52
2018-06-28T02:59:42.833Z,22.51
2018-06-28T03:02:10.660Z,22.48
2018-06-28T03:04:38.294Z,22.48
2018-06-28T03:07:06.128Z,22.48
2018-06-28T03:09:33.857Z,22.47
2018-06-28T03:12:01.456Z,22.49
2018-06-28T03:14:29.034Z,22.48
2018-06-28T03:16:56.731Z,22.48
2018-06-28T03:19:24.522Z,22.47
2018-06-28T03:21:52.108Z,22.45
2018-06-28T03:24:19.719Z,22.42
2018-06-28T03:26:47.686Z,22.41
2018-06-28T03:29:15.303Z,22.41
2018-06-28T03:31:43.230Z,22.40
2018-06-28T03:34:10.857Z,22.37
2018-06-28T03:36:39.169Z,22.39
2018-06-28T03:39:09.763Z,22.47
2018-06-28T03:41:37.434Z,22.48
2018-06-28T03:44:05.303Z,22.46
2018-06-28T03:46:33.155Z,22.44
2018-06-28T03:49:01.355Z,22.44
2018-06-28T03:51:28.961Z,22.41
2018-06-28T03:53:56.892Z,22.39
2018-06-28T03:56:24.961Z,22.39
2018-06-28T03:58:52.885Z,22.39
2018-06-28T04:01:20.662Z,22.37
2018-06-28T04:03:48.272Z,22.35
2018-06-28T04:06:16.149Z,22.38
2018-06-28T04:08:43.849Z,22.39
2018-06-28T04:11:11.530Z,22.39
2018-06-28T04:13:39.555Z,22.41
2018-06-28T04:16:07.141Z,22.41
2018-06-28T04:18:34.734Z,22.41
2018-06-28T04:21:02.795Z,22.42
2018-06-28T04:23:30.362Z,22.42
2018-06-28T04:25:58.569Z,22.41
2018-06-28T04:28:26.306Z,22.41
2018-06-28T04:30:54.240Z,22.42
2018-06-28T04:33:22.189Z,22.43
2018-06-28T04:35:49.796Z,22.42
2018-06-28T04:38:17.642Z,22.43
2018-06-28T04:40:46.058Z,22.42
2018-06-28T04:43:14.366Z,22.43
2018-06-28T04:45:42.009Z,22.43
2018-06-28T04:48:09.929Z,22.43
2018-06-28T04:50:37.794Z,22.42
2018-06-28T04:53:05.490Z,22.43
2018-06-28T04:55:33.124Z,22.43
2018-06-28T04:58:01.041Z,22.42
2018-06-28T05:00:29.017Z,22.45
2018-06-28T05:02:56.659Z,22.46
2018-06-28T05:05:24.628Z,22.46
2018-06-28T05:07:52.489Z,22.50
2018-06-28T05:10:20.327Z,22.52
2018-06-28T05:12:48.047Z,22.52
2018-06-28T05:15:15.720Z,22.52
2018-06-28T05:17:43.386Z,22.53
2018-06-28T05:20:11.486Z,22.54
2018-06-28T05:22:39.164Z,22.55
2018-06-28T05:25:06.811Z,22.56
2018-06-28T05:27:35.073Z,22.56
2018-06-28T05:30:03.242Z,22.58
2018-06-28T05:32:31.100Z,22.61
2018-06-28T05:34:58.843Z,22.60
2018-06-28T05:37:26.745Z,22.62
2018-06-28T05:39:54.600Z,22.63
2018-06-28T05:42:22.286Z,22.68
2018-06-28T05:44:50.155Z,22.69
2018-06-28T05:47:18.088Z,22.74
2018-06-28T05:49:45.948Z,22.78
2018-06-28T05:52:13.881Z,22.81
2018-06-28T05:54:42.433Z,22.87
2018-06-28T05:57:10.327Z,22.87
2018-06-28T05:59:37.977Z,22.90
2018-06-28T06:02:06.149Z,22.92
2018-06-28T06:04:33.817Z,22.93
2018-06-28T06:07:01.946Z,22.93
2018-06-28T06:09:29.971Z,22.91
2018-06-28T06:11:57.678Z,22.91
2018-06-28T06:14:25.354Z,22.93
2018-06-28T06:16:53.713Z,22.94
2018-06-28T06:19:21.920Z,22.94
2018-06-28T06:21:49.712Z,22.96
2018-06-28T06:24:17.409Z,22.99
2018-06-28T06:26:45.480Z,23.02
2018-06-28T06:29:13.520Z,23.01
2018-06-28T06:31:41.438Z,23.02
2018-06-28T06:34:09.507Z,23.01
2018-06-28T06:36:37.555Z,23.02
2018-06-28T06:39:08.446Z,23.01
2018-06-28T06:41:36.066Z,23.02
2018-06-28T06:44:05.230Z,23.02
2018-06-28T06:46:33.321Z,23.03
2018-06-28T06:49:01.072Z,23.04
2018-06-28T06:51:28.722Z,23.06
2018-06-28T06:53:56.363Z,23.06
2018-06-28T06:56:24.381Z,23.07
2018-06-28T06:58:52.107Z,23.08
2018-06-28T07:01:19.730Z,23.08
2018-06-28T07:03:47.802Z,23.11
2018-06-28T07:06:15.870Z,23.12
2018-06-28T07:08:43.496Z,23.12
2018-06-28T07:11:11.465Z,23.13
2018-06-28T07:13:39.440Z,23.14
2018-06-28T07:16:07.353Z,23.16
2018-06-28T07:18:35.272Z,23.17
2018-06-28T07:21:03.550Z,23.18
2018-06-28T07:23:31.482Z,23.19
2018-06-28T07:25:59.382Z,23.20
2018-06-28T07:28:27.454Z,23.20
2018-06-28T07:30:55.046Z,23.20
2018-06-28T07:33:22.791Z,23.21
2018-06-28T07:35:50.554Z,23.23
2018-06-28T07:38:18.426Z,23.26
2018-06-28T07:40:46.081Z,23.25
2018-06-28T07:43:14.629Z,23.26
2018-06-28T07:45:42.521Z,23.28
2018-06-28T07:48:10.202Z,23.28
2018-06-28T07:50:37.849Z,23.28
2018-06-28T07:53:05.509Z,23.29
2018-06-28T07:55:33.160Z,23.28
2018-06-28T07:58:01.348Z,23.30
2018-06-28T08:00:29.121Z,23.31
2018-06-28T08:02:57.008Z,23.33
2018-06-28T08:05:24.655Z,23.34
2018-06-28T08:07:52.565Z,23.35
2018-06-28T08:10:20.548Z,23.36
2018-06-28T08:12:48.207Z,23.38
2018-06-28T08:15:16.462Z,23.38
2018-06-28T08:17:44.470Z,23.39
2018-06-28T08:20:12.127Z,23.41
2018-06-28T08:22:39.777Z,23.43
2018-06-28T08:25:07.798Z,23.43
2018-06-28T08:27:35.416Z,23.43
2018-06-28T08:30:03.058Z,23.45
2018-06-28T08:32:30.822Z,23.47
2018-06-28T08:34:58.425Z,23.48
2018-06-28T08:37:26.045Z,23.49
2018-06-28T08:39:53.960Z,23.49
2018-06-28T08:42:21.669Z,23.52
2018-06-28T08:44:49.564Z,23.51
2018-06-28T08:47:17.530Z,23.52
2018-06-28T08:49:45.199Z,23.53
2018-06-28T08:52:12.820Z,23.53
2018-06-28T08:54:40.968Z,23.54
2018-06-28T08:57:08.565Z,23.53
2018-06-28T08:59:36.434Z,23.56
2018-06-28T09:02:04.381Z,23.59
2018-06-28T09:04:32.338Z,23.59
2018-06-28T09:07:00.205Z,23.61
2018-06-28T09:09:27.841Z,23.61
2018-06-28T09:11:55.480Z,23.63
2018-06-28T09:14:23.455Z,23.65
2018-06-28T09:16:51.307Z,23.66
2018-06-28T09:19:18.928Z,23.68
2018-06-28T09:21:46.685Z,23.59
2018-06-28T09:24:14.939Z,23.68
2018-06-28T09:26:42.583Z,23.67
2018-06-28T09:29:10.231Z,23.69
2018-06-28T09:31:38.213Z,23.68
2018-06-28T09:34:06.376Z,23.70
2018-06-28T09:36:34.488Z,23.70
2018-06-28T09:39:02.449Z,23.71
2018-06-28T09:41:30.694Z,23.72
2018-06-28T09:43:58.621Z,23.74
2018-06-28T09:46:26.569Z,23.75
2018-06-28T09:48:54.669Z,23.78
2018-06-28T09:51:22.577Z,23.80
2018-06-28T09:53:50.192Z,23.82
2018-06-28T09:56:17.845Z,23.83
2018-06-28T09:58:45.520Z,23.84
2018-06-28T10:01:13.217Z,23.86
2018-06-28T10:03:41.097Z,23.87
2018-06-28T10:06:09.065Z,23.87
2018-06-28T10:08:36.824Z,23.87
2018-06-28T10:11:05.008Z,23.91
2018-06-28T10:13:32.661Z,23.91
2018-06-28T10:16:00.318Z,23.92
2018-06-28T10:18:28.307Z,23.95
2018-06-28T10:20:56.165Z,23.99
2018-06-28T10:23:23.867Z,24.02
2018-06-28T10:25:52.102Z,24.04
2018-06-28T10:28:19.975Z,24.06
2018-06-28T10:30:48.024Z,24.09
2018-06-28T10:33:15.846Z,24.16
2018-06-28T10:35:43.923Z,24.17
2018-06-28T10:38:11.605Z,24.17
2018-06-28T10:40:39.493Z,24.17
2018-06-28T10:43:09.053Z,24.19
2018-06-28T10:45:36.719Z,24.22
2018-06-28T10:48:04.438Z,24.23
2018-06-28T10:50:32.134Z,24.27
2018-06-28T10:52:59.770Z,24.30
2018-06-28T10:55:27.420Z,24.33
2018-06-28T10:57:55.443Z,24.35
2018-06-28T11:00:23.353Z,24.40
2018-06-28T11:02:50.960Z,24.45
2018-06-28T11:05:18.679Z,24.48
2018-06-28T11:07:46.486Z,24.52
2018-06-28T11:10:14.149Z,24.58
2018-06-28T11:12:41.952Z,24.60
2018-06-28T11:15:09.840Z,24.64
2018-06-28T11:17:37.483Z,24.64
2018-06-28T11:20:05.160Z,24.61
2018-06-28T11:22:33.137Z,24.63
2018-06-28T11:25:00.776Z,24.64
2018-06-28T11:27:28.455Z,24.68
2018-06-28T11:29:56.228Z,24.72
2018-06-28T11:32:23.888Z,24.75
2018-06-28T11:34:51.560Z,24.80
2018-06-28T11:37:19.203Z,24.83
2018-06-28T11:39:46.845Z,24.85
2018-06-28T11:42:15.222Z,24.89
2018-06-28T11:44:43.731Z,24.90
2018-06-28T11:47:11.444Z,24.91
2018-06-28T11:49:39.717Z,24.94
2018-06-28T11:52:07.379Z,25.02
2018-06-28T11:54:35.308Z,25.02
2018-06-28T11:57:02.972Z,25.04
2018-06-28T11:59:30.594Z,25.06
2018-06-28T12:01:58.491Z,25.07
2018-06-28T12:04:26.283Z,25.06
2018-06-28T12:06:53.921Z,25.03
2018-06-28T12:09:23.484Z,25.03
2018-06-28T12:11:51.724Z,25.02
2018-06-28T12:14:19.372Z,25.07
2018-06-28T12:16:47.260Z,25.15
2018-06-28T12:19:17.869Z,25.19
2018-06-28T12:21:46.048Z,25.25
2018-06-28T12:24:13.947Z,25.29
2018-06-28T12:26:41.564Z,25.36
2018-06-28T12:29:09.230Z,25.39
2018-06-28T12:31:36.856Z,25.42
2018-06-28T12:34:04.888Z,25.46
2018-06-28T12:36:33.063Z,25.47
2018-06-28T12:39:01.449Z,25.51
2018-06-28T12:41:29.334Z,25.56
2018-06-28T12:43:56.971Z,25.56
2018-06-28T12:46:36.296Z,25.54
2018-06-28T12:49:03.876Z,25.61
2018-06-28T12:51:42.843Z,25.63
2018-06-28T12:54:10.758Z,25.63
2018-06-28T12:56:39.553Z,25.63
2018-06-28T12:59:08.754Z,25.58
2018-06-28T13:01:36.533Z,25.68
2018-06-28T13:04:04.202Z,25.70
2018-06-28T13:06:32.118Z,25.73
2018-06-28T13:09:00.768Z,25.78
2018-06-28T13:11:29.207Z,25.83
2018-06-28T13:13:56.817Z,25.85
2018-06-28T13:16:25.882Z,25.91
2018-06-28T13:18:53.547Z,25.92
2018-06-28T13:21:21.389Z,25.92
2018-06-28T13:23:50.685Z,25.93
2018-06-28T13:26:18.875Z,25.94
2018-06-28T13:28:46.615Z,25.96
2018-06-28T13:31:14.265Z,26.01
2018-06-28T13:33:42.271Z,26.04
2018-06-28T13:36:10.035Z,26.07
2018-06-28T13:38:38.260Z,26.10
2018-06-28T13:41:06.311Z,26.17
2018-06-28T13:43:33.932Z,26.19
2018-06-28T13:46:01.922Z,26.20
2018-06-28T13:48:29.608Z,26.20
2018-06-28T13:50:58.144Z,26.22
2018-06-28T13:53:26.063Z,26.23
2018-06-28T13:55:53.686Z,26.25
2018-06-28T13:58:21.631Z,26.29
2018-06-28T14:00:49.261Z,26.31
2018-06-28T14:03:17.349Z,26.34
2018-06-28T14:05:44.966Z,26.38
2018-06-28T14:08:12.823Z,26.44
2018-06-28T14:10:40.661Z,26.45
2018-06-28T14:13:08.888Z,26.50
2018-06-28T14:15:36.940Z,26.53
2018-06-28T14:18:04.633Z,26.52
2018-06-28T14:20:32.329Z,26.54
2018-06-28T14:22:59.963Z,26.58
2018-06-28T14:25:28.377Z,26.68
2018-06-28T14:27:56.126Z,26.83
2018-06-28T14:30:23.807Z,27.09
2018-06-28T14:32:51.895Z,27.49
2018-06-28T14:35:19.817Z,28.44
2018-06-28T14:37:49.663Z,30.09
2018-06-28T14:40:17.941Z,31.29
2018-06-28T14:42:45.564Z,31.94
2018-06-28T14:45:13.352Z,32.46
2018-06-28T14:47:41.256Z,32.77
2018-06-28T14:50:08.898Z,32.90
2018-06-28T14:52:36.872Z,32.93
2018-06-28T14:55:05.115Z,32.84
2018-06-28T14:57:32.766Z,32.99
2018-06-28T15:00:00.434Z,32.77
2018-06-28T15:02:28.373Z,32.25
2018-06-28T15:04:56.045Z,31.71
2018-06-28T15:07:24.012Z,30.13
2018-06-28T15:09:52.957Z,29.03
2018-06-28T15:12:20.593Z,28.51
2018-06-28T15:14:48.470Z,28.18
2018-06-28T15:17:16.146Z,28.01
2018-06-28T15:19:43.774Z,28.45
2018-06-28T15:22:11.749Z,28.27
2018-06-28T15:24:39.415Z,28.10
2018-06-28T15:27:07.463Z,27.88
2018-06-28T15:29:35.126Z,27.76
2018-06-28T15:32:02.761Z,27.70
2018-06-28T15:34:30.411Z,27.67
2018-06-28T15:36:58.201Z,27.60
2018-06-28T15:39:26.576Z,27.51
2018-06-28T15:41:54.582Z,27.42
2018-06-28T15:44:22.285Z,27.38
2018-06-28T15:46:49.907Z,27.33
2018-06-28T15:49:17.954Z,27.30
2018-06-28T15:51:45.703Z,27.29
2018-06-28T15:54:13.922Z,27.43
2018-06-28T15:56:41.545Z,27.62
2018-06-28T15:59:09.224Z,27.85
2018-06-28T16:01:36.834Z,27.89
2018-06-28T16:04:04.663Z,27.74
2018-06-28T16:06:32.646Z,27.61
2018-06-28T16:09:00.339Z,27.45
2018-06-28T16:11:28.653Z,27.38
2018-06-28T16:13:56.308Z,27.36
2018-06-28T16:16:23.933Z,27.38
2018-06-28T16:18:51.737Z,27.41
2018-06-28T16:21:19.332Z,27.58
2018-06-28T16:23:47.217Z,27.59
2018-06-28T16:26:14.910Z,27.62
2018-06-28T16:28:42.575Z,27.79
2018-06-28T16:31:10.196Z,28.05
2018-06-28T16:33:37.894Z,28.56
2018-06-28T16:36:05.659Z,28.84
2018-06-28T16:38:33.425Z,28.94
2018-06-28T16:41:01.066Z,28.94
2018-06-28T16:43:28.697Z,28.79
2018-06-28T16:45:56.463Z,28.73
2018-06-28T16:48:24.384Z,28.79
2018-06-28T16:50:52.271Z,28.76
2018-06-28T16:53:20.056Z,28.76
2018-06-28T16:55:47.890Z,28.91
2018-06-28T16:58:15.842Z,29.06
2018-06-28T17:00:44.574Z,29.21
2018-06-28T17:03:14.315Z,29.26
2018-06-28T17:05:41.934Z,29.47
2018-06-28T17:08:09.859Z,29.64
2018-06-28T17:10:37.782Z,29.74
2018-06-28T17:13:05.758Z,29.72
2018-06-28T17:15:33.617Z,29.65
2018-06-28T17:18:01.609Z,29.56
2018-06-28T17:20:29.579Z,29.57
2018-06-28T17:22:57.878Z,29.59
2018-06-28T17:25:25.900Z,29.59
2018-06-28T17:27:54.122Z,29.64
2018-06-28T17:30:22.715Z,29.67
2018-06-28T17:32:50.453Z,29.67
2018-06-28T17:35:18.566Z,29.69
2018-06-28T17:37:46.817Z,29.69
2018-06-28T17:40:14.867Z,29.70
2018-06-28T17:42:42.706Z,29.78
2018-06-28T17:45:10.394Z,29.81
2018-06-28T17:47:38.053Z,29.81
2018-06-28T17:50:05.719Z,29.94
2018-06-28T17:52:33.477Z,30.06
2018-06-28T17:55:01.386Z,30.10
2018-06-28T17:57:29.255Z,30.17
2018-06-28T17:59:56.960Z,30.19
2018-06-28T18:02:25.554Z,30.20
2018-06-28T18:04:53.924Z,30.12
2018-06-28T18:07:21.980Z,30.15
2018-06-28T18:09:49.636Z,30.16
2018-06-28T18:12:17.807Z,30.23
2018-06-28T18:14:45.472Z,30.19
2018-06-28T18:17:13.164Z,30.06
2018-06-28T18:19:41.323Z,29.97
2018-06-28T18:22:08.979Z,29.94
2018-06-28T18:24:37.262Z,29.95
2018-06-28T18:27:05.418Z,29.96
2018-06-28T18:29:33.110Z,29.90
2018-06-28T18:32:00.830Z,29.82
2018-06-28T18:34:29.128Z,29.75
2018-06-28T18:36:56.771Z,29.74
2018-06-28T18:39:24.432Z,29.68
2018-06-28T18:41:52.777Z,29.64
2018-06-28T18:46:45.680Z,29.57
2018-06-28T18:49:13.692Z,29.57
2018-06-28T18:51:41.808Z,29.49
2018-06-28T18:54:09.479Z,29.41
2018-06-28T18:56:37.176Z,29.32
2018-06-28T18:59:05.145Z,29.31
2018-06-28T19:01:32.985Z,29.30
2018-06-28T19:04:01.057Z,29.26
2018-06-28T19:06:28.697Z,29.16
2018-06-28T19:08:56.569Z,29.10
2018-06-28T19:11:24.261Z,29.07
2018-06-28T19:13:57.690Z,29.01
2018-06-28T19:16:30.891Z,28.96
2018-06-28T19:18:58.577Z,28.85
2018-06-28T19:21:32.062Z,28.69
2018-06-28T19:23:59.766Z,28.52
2018-06-28T19:26:27.423Z,28.30
2018-06-28T19:28:55.115Z,28.09
2018-06-28T19:31:28.310Z,27.94
2018-06-28T19:33:56.120Z,27.81
2018-06-28T19:36:23.806Z,27.72
2018-06-28T19:38:57.030Z,27.61
2018-06-28T19:41:32.519Z,27.52
2018-06-28T19:44:00.476Z,26.47
2018-06-28T19:46:28.504Z,26.87
2018-06-28T19:48:56.195Z,27.04
2018-06-28T19:51:29.973Z,27.13
2018-06-28T19:53:57.663Z,27.16
2018-06-28T19:56:25.377Z,27.14
2018-06-28T19:58:53.310Z,27.10
2018-06-28T20:01:26.700Z,26.99
2018-06-28T20:04:00.190Z,26.88
2018-06-28T20:06:27.944Z,26.82
2018-06-28T20:08:55.845Z,26.79
2018-06-28T20:11:23.512Z,26.72
2018-06-28T20:13:56.989Z,26.65
2018-06-28T20:16:30.240Z,26.59
2018-06-28T20:19:03.166Z,26.55
2018-06-28T20:21:31.073Z,26.52
2018-06-28T20:23:59.039Z,26.48
2018-06-28T20:26:32.267Z,26.45
2018-06-28T20:29:05.604Z,26.41
2018-06-28T20:31:39.356Z,26.38
2018-06-28T20:34:10.353Z,26.38
2018-06-28T20:36:37.976Z,26.36
2018-06-28T20:39:07.522Z,26.36
2018-06-28T20:41:35.165Z,26.32
2018-06-28T20:44:03.155Z,26.28
2018-06-28T20:46:30.891Z,26.23
2018-06-28T20:48:58.492Z,26.21
2018-06-28T20:51:26.105Z,26.17
2018-06-28T20:53:54.026Z,26.14
2018-06-28T20:56:22.280Z,25.88
2018-06-28T20:58:50.268Z,26.07
2018-06-28T21:01:17.905Z,26.07
2018-06-28T21:03:45.528Z,26.04
2018-06-28T21:06:15.478Z,26.01
2018-06-28T21:08:45.142Z,25.98
2018-06-28T21:11:13.137Z,25.94
2018-06-28T21:13:41.152Z,25.92
2018-06-28T21:16:08.749Z,25.88
2018-06-28T21:18:36.415Z,25.85
2018-06-28T21:21:04.032Z,25.82
2018-06-28T21:23:31.679Z,25.76
2018-06-28T21:25:59.747Z,25.72
2018-06-28T21:28:27.413Z,25.70
2018-06-28T21:30:55.072Z,25.65
2018-06-28T21:33:22.732Z,25.62
2018-06-28T21:35:50.354Z,25.59
2018-06-28T21:38:18.010Z,25.57
2018-06-28T21:40:45.645Z,25.54
2018-06-28T21:43:13.497Z,25.52
2018-06-28T21:45:41.161Z,25.47
2018-06-28T21:48:08.833Z,25.45
2018-06-28T21:50:36.455Z,25.41
2018-06-28T21:53:04.234Z,25.38
2018-06-28T21:55:31.931Z,25.35
2018-06-28T21:57:59.824Z,25.32
2018-06-28T22:00:30.828Z,25.29
2018-06-28T22:02:59.461Z,25.27
2018-06-28T22:05:27.554Z,25.24
2018-06-28T22:07:55.817Z,25.21
2018-06-28T22:10:23.766Z,25.19
2018-06-28T22:12:51.409Z,25.17
2018-06-28T22:15:33.874Z,25.15
2018-06-28T22:18:02.870Z,25.13
2018-06-28T22:20:31.180Z,25.12
2018-06-28T22:22:59.242Z,25.08
2018-06-28T22:25:28.096Z,25.08
2018-06-28T22:27:55.879Z,25.06
2018-06-28T22:30:23.997Z,25.03
2018-06-28T22:32:51.731Z,25.02
2018-06-28T22:35:19.613Z,24.99
2018-06-28T22:37:47.489Z,24.95
2018-06-28T22:40:15.336Z,24.96
2018-06-28T22:42:43.513Z,24.92
2018-06-28T22:45:11.674Z,24.91
2018-06-28T22:47:39.989Z,24.87
2018-06-28T22:50:08.301Z,24.86
2018-06-28T22:52:35.917Z,24.84
2018-06-28T22:55:04.008Z,24.83
2018-06-28T22:57:31.986Z,24.81
2018-06-28T22:59:59.662Z,24.79
2018-06-28T23:02:27.310Z,24.78
2018-06-28T23:04:55.253Z,24.79
2018-06-28T23:07:23.390Z,24.76
2018-06-28T23:09:51.028Z,24.74
2018-06-28T23:12:18.691Z,24.73
2018-06-28T23:14:46.476Z,24.72
2018-06-28T23:17:14.173Z,24.70
2018-06-28T23:19:41.794Z,24.68
2018-06-28T23:22:18.689Z,24.66
2018-06-28T23:24:46.670Z,24.64
2018-06-28T23:27:14.303Z,24.63
2018-06-28T23:29:42.305Z,24.62
2018-06-28T23:32:10.178Z,24.59
2018-06-28T23:34:38.088Z,24.56
2018-06-28T23:37:05.739Z,24.55
2018-06-28T23:39:33.361Z,24.52
2018-06-28T23:42:01.021Z,24.51
2018-06-28T23:44:29.453Z,24.52
2018-06-28T23:46:57.359Z,24.51
2018-06-28T23:49:25.361Z,24.49
2018-06-28T23:51:53.363Z,24.47
2018-06-28T23:54:21.548Z,24.45
2018-06-28T23:56:49.490Z,24.45
2018-06-28T23:59:17.138Z,24.41
